Time;durP1;ratioP1;P1;durP2;ratioP2;P2;SDS_P1;SDS_P2;PMS_P1;PMS_P2;Temp;Humidity;BMP_temperature;BMP_pressure;BME280_temperature;BME280_humidity;BME280_pressure;Samples;Min_cycle;Max_cycle;Signal;HPM_P1;HPM_P2
2024/02/27 00:01:51;;;;;;;;;32.67;25.67;;;;;9.53;100.00;100445.09;6214969;22;45315;-82
2024/02/27 00:04:16;;;;;;;;;25.67;22.67;;;;;9.50;100.00;100438.84;6215151;22;45620;-82
2024/02/27 00:06:43;;;;;;;;;31.67;26.33;;;;;9.51;100.00;100464.50;6215292;22;45595;-82
2024/02/27 00:09:08;;;;;;;;;30.00;27.67;;;;;9.55;100.00;100451.31;6215100;22;45803;-82
2024/02/27 00:11:34;;;;;;;;;26.33;25.33;;;;;9.64;100.00;100465.59;6214966;22;45408;-82
2024/02/27 00:14:00;;;;;;;;;24.67;24.67;;;;;9.49;100.00;100450.31;6215359;22;45349;-82
2024/02/27 00:16:26;;;;;;;;;29.33;28.00;;;;;9.52;100.00;100458.34;6219698;22;46152;-82
2024/02/27 00:18:51;;;;;;;;;23.00;22.00;;;;;9.51;100.00;100467.16;6220816;22;44830;-81
2024/02/27 00:21:16;;;;;;;;;29.67;22.33;;;;;9.53;100.00;100469.00;6218042;22;45281;-81
2024/02/27 00:23:43;;;;;;;;;29.00;27.00;;;;;9.76;100.00;100482.56;6218266;22;44848;-81
2024/02/27 00:26:08;;;;;;;;;32.67;30.67;;;;;9.57;100.00;100478.78;6216755;22;47015;-81
2024/02/27 00:28:34;;;;;;;;;30.33;25.33;;;;;9.59;100.00;100489.41;6219688;22;45413;-81
2024/02/27 00:31:00;;;;;;;;;26.67;24.67;;;;;9.49;100.00;100506.06;6222308;22;45330;-81
2024/02/27 00:33:26;;;;;;;;;24.67;21.67;;;;;9.43;100.00;100498.00;6222054;22;45205;-82
2024/02/27 00:35:53;;;;;;;;;36.67;31.00;;;;;9.42;100.00;100515.72;6222535;22;45387;-82
2024/02/27 00:38:18;;;;;;;;;30.67;23.33;;;;;9.32;100.00;100492.56;6196016;22;45929;-82
2024/02/27 00:40:51;;;;;;;;;25.00;25.00;;;;;9.36;100.00;100500.56;6226599;22;45310;-82
2024/02/27 00:43:16;;;;;;;;;39.33;32.33;;;;;9.41;100.00;100505.94;6223906;22;45412;-82
2024/02/27 00:45:42;;;;;;;;;31.67;26.67;;;;;9.47;100.00;100518.41;6223240;22;46718;-82
2024/02/27 00:48:07;;;;;;;;;26.33;24.33;;;;;9.45;100.00;100521.03;6223498;22;55671;-82
2024/02/27 00:50:32;;;;;;;;;36.00;29.67;;;;;9.43;100.00;100519.25;6253489;22;45324;-81
2024/02/27 00:52:58;;;;;;;;;33.00;31.00;;;;;9.40;100.00;100525.41;6253141;22;45299;-81
2024/02/27 00:55:23;;;;;;;;;22.33;22.33;;;;;9.43;100.00;100541.38;6252956;22;45834;-82
2024/02/27 00:57:49;;;;;;;;;36.67;31.67;;;;;9.33;100.00;100543.00;6253904;22;44803;-82
2024/02/27 01:00:17;;;;;;;;;39.00;33.33;;;;;9.38;100.00;100536.00;6224633;22;45422;-82
2024/02/27 01:02:45;;;;;;;;;35.67;30.33;;;;;9.40;100.00;100528.06;6255548;22;44850;-82
2024/02/27 01:05:13;;;;;;;;;33.33;29.00;;;;;9.56;100.00;100545.13;6228131;22;46723;-82
2024/02/27 01:07:39;;;;;;;;;33.67;31.33;;;;;9.43;100.00;100546.66;6230467;22;45303;-83
2024/02/27 01:10:06;;;;;;;;;35.00;29.67;;;;;9.50;100.00;100553.88;6230879;22;44864;-82
2024/02/27 01:12:31;;;;;;;;;40.67;31.67;;;;;9.49;100.00;100545.88;6230401;22;44778;-82
2024/02/27 01:14:57;;;;;;;;;35.67;35.33;;;;;9.52;100.00;100554.78;6259213;22;45129;-82
2024/02/27 01:17:22;;;;;;;;;37.00;31.00;;;;;9.66;100.00;100560.31;6206581;22;44919;-82
2024/02/27 01:19:48;;;;;;;;;34.33;29.67;;;;;9.65;100.00;100569.13;6259970;22;44716;-82
2024/02/27 01:22:26;;;;;;;;;36.00;30.33;;;;;9.78;100.00;100576.44;6233106;22;45277;-82
2024/02/27 01:24:51;;;;;;;;;37.00;30.33;;;;;9.59;100.00;100579.66;6233888;22;47450;-82
2024/02/27 01:27:17;;;;;;;;;37.33;33.67;;;;;9.60;100.00;100578.81;6234150;22;45344;-82
2024/02/27 01:29:42;;;;;;;;;37.00;30.33;;;;;9.61;100.00;100572.63;6236078;22;45348;-82
2024/02/27 01:32:09;;;;;;;;;30.67;27.67;;;;;9.64;100.00;100570.03;6235527;22;44835;-82
2024/02/27 01:34:36;;;;;;;;;34.33;33.00;;;;;9.58;100.00;100588.50;6234866;22;47202;-82
2024/02/27 01:37:02;;;;;;;;;39.67;34.67;;;;;9.47;100.00;100579.47;6260145;22;45828;-82
2024/02/27 01:39:27;;;;;;;;;30.00;29.33;;;;;9.48;100.00;100586.59;6260148;22;45084;-82
2024/02/27 01:41:59;;;;;;;;;33.33;27.00;;;;;9.62;100.00;100590.34;6259251;22;44811;-82
2024/02/27 01:44:26;;;;;;;;;40.33;32.33;;;;;9.51;100.00;100597.25;6263343;22;45382;-82
2024/02/27 01:46:52;;;;;;;;;32.33;27.00;;;;;9.60;100.00;100603.59;6236346;22;44825;-81
2024/02/27 01:49:18;;;;;;;;;29.00;26.33;;;;;9.58;100.00;100599.13;6236524;22;44912;-83
2024/02/27 01:51:46;;;;;;;;;29.67;28.33;;;;;9.68;100.00;100603.72;6236929;22;44918;-82
2024/02/27 01:54:20;;;;;;;;;40.00;35.33;;;;;9.70;100.00;100604.63;6262687;22;45300;-82
2024/02/27 01:56:49;;;;;;;;;33.00;29.00;;;;;9.62;100.00;100614.25;6235616;22;45796;-82
2024/02/27 01:59:17;;;;;;;;;35.67;28.67;;;;;9.50;100.00;100606.97;6263885;22;44719;-82
2024/02/27 02:01:44;;;;;;;;;35.00;34.33;;;;;9.37;100.00;100619.16;6263987;22;44874;-81
2024/02/27 02:04:11;;;;;;;;;35.67;28.67;;;;;9.52;100.00;100620.28;6234807;22;46053;-82
2024/02/27 02:06:44;;;;;;;;;38.33;36.00;;;;;9.35;100.00;100597.00;6236035;22;44983;-81
2024/02/27 02:09:16;;;;;;;;;35.00;31.67;;;;;9.57;100.00;100608.88;6211760;22;44894;-82
2024/02/27 02:11:44;;;;;;;;;28.67;28.67;;;;;9.49;100.00;100614.91;6262910;22;44725;-82
2024/02/27 02:14:09;;;;;;;;;36.67;35.67;;;;;9.47;100.00;100613.97;6236061;22;47273;-83
2024/02/27 02:16:35;;;;;;;;;37.00;35.33;;;;;9.39;100.00;100604.16;6262975;22;44772;-83
2024/02/27 02:19:00;;;;;;;;;34.33;31.00;;;;;9.44;100.00;100611.28;6236514;22;45413;-83
2024/02/27 02:21:26;;;;;;;;;36.67;31.67;;;;;9.44;100.00;100616.59;6263295;22;44833;-82
2024/02/27 02:23:51;;;;;;;;;42.00;32.67;;;;;9.44;100.00;100619.25;6233458;22;47158;-82
2024/02/27 02:26:18;;;;;;;;;31.67;29.00;;;;;9.38;100.00;100614.72;6233609;22;45178;-82
2024/02/27 02:28:43;;;;;;;;;37.33;35.00;;;;;9.36;100.00;100625.31;6234675;22;44858;-81
2024/02/27 02:31:08;;;;;;;;;28.67;26.00;;;;;9.36;100.00;100630.63;6234234;22;44988;-82
2024/02/27 02:33:34;;;;;;;;;25.67;25.67;;;;;9.37;100.00;100620.91;6234911;22;48062;-82
2024/02/27 02:35:59;;;;;;;;;39.00;36.00;;;;;9.36;100.00;100617.34;6235244;22;44763;-82
2024/02/27 02:38:25;;;;;;;;;36.67;33.00;;;;;9.33;100.00;100633.25;6235768;22;44845;-83
2024/02/27 02:40:50;;;;;;;;;43.00;38.33;;;;;9.33;100.00;100641.19;6232350;22;45321;-83
2024/02/27 02:43:15;;;;;;;;;39.33;32.33;;;;;9.32;100.00;100633.22;6237456;22;47123;-82
2024/02/27 02:45:41;;;;;;;;;39.33;34.33;;;;;9.23;100.00;100633.94;6264580;22;44987;-82
2024/02/27 02:48:07;;;;;;;;;31.00;27.33;;;;;9.23;100.00;100636.59;6266127;22;44748;-82
2024/02/27 02:50:33;;;;;;;;;31.33;27.67;;;;;9.30;100.00;100649.09;6267364;22;44800;-82
2024/02/27 02:52:59;;;;;;;;;33.00;31.00;;;;;9.26;100.00;100646.38;6239176;22;47159;-82
2024/02/27 02:55:25;;;;;;;;;32.00;25.33;;;;;9.21;100.00;100651.59;6240549;22;44917;-82
2024/02/27 02:57:50;;;;;;;;;34.33;34.33;;;;;9.14;100.00;100649.69;6264755;22;44750;-83
2024/02/27 03:00:16;;;;;;;;;29.67;26.67;;;;;9.17;100.00;100652.38;6241844;22;45909;-82
2024/02/27 03:02:42;;;;;;;;;31.00;25.67;;;;;9.15;100.00;100654.13;6268122;22;45679;-82
2024/02/27 03:05:12;;;;;;;;;31.33;30.00;;;;;9.12;100.00;100659.38;6241217;22;45393;-82
2024/02/27 03:07:37;;;;;;;;;37.33;35.33;;;;;9.05;100.00;100657.47;6241685;22;45298;-82
2024/02/27 03:10:04;;;;;;;;;26.67;25.67;;;;;9.23;100.00;100667.53;6269184;22;44745;-82
2024/02/27 03:12:29;;;;;;;;;37.67;32.67;;;;;9.02;100.00;100650.34;6268501;22;45382;-82
2024/02/27 03:14:55;;;;;;;;;31.33;28.00;;;;;9.15;100.00;100675.34;6265471;22;44876;-82
2024/02/27 03:17:27;;;;;;;;;33.67;31.00;;;;;9.19;100.00;100688.72;6245905;22;45901;-82
2024/02/27 03:19:59;;;;;;;;;37.67;35.00;;;;;9.37;100.00;100684.59;6269226;22;44868;-82
2024/02/27 03:22:27;;;;;;;;;31.33;24.33;;;;;9.13;100.00;100674.41;6268364;22;45180;-82
2024/02/27 03:24:52;;;;;;;;;33.33;28.33;;;;;9.10;100.00;100682.34;6240729;22;44813;-82
2024/02/27 03:27:19;;;;;;;;;26.67;24.33;;;;;9.20;100.00;100686.94;6268725;22;44853;-81
2024/02/27 03:29:44;;;;;;;;;30.00;27.67;;;;;9.12;100.00;100691.22;6241885;22;44860;-82
2024/02/27 03:32:10;;;;;;;;;31.33;29.00;;;;;9.09;100.00;100683.19;6241335;22;46938;-82
2024/02/27 03:34:35;;;;;;;;;31.33;28.33;;;;;9.11;100.00;100697.38;6241764;22;44929;-82
2024/02/27 03:37:01;;;;;;;;;36.67;31.67;;;;;9.08;100.00;100687.59;6241407;22;44840;-82
2024/02/27 03:39:27;;;;;;;;;22.00;21.00;;;;;9.05;100.00;100697.25;6242077;22;44931;-82
2024/02/27 03:41:53;;;;;;;;;32.33;27.67;;;;;9.07;100.00;100706.13;6267440;22;45040;-82
2024/02/27 03:44:18;;;;;;;;;35.67;30.00;;;;;9.00;100.00;100729.91;6268311;22;44971;-82
2024/02/27 03:46:43;;;;;;;;;30.00;25.50;;;;;8.99;100.00;100712.22;6241945;22;44915;-82
2024/02/27 03:49:09;;;;;;;;;42.00;37.00;;;;;8.98;100.00;100702.44;6268580;22;44770;-82
2024/02/27 03:51:35;;;;;;;;;29.00;29.00;;;;;9.00;100.00;100727.25;6240767;22;47732;-82
2024/02/27 03:54:00;;;;;;;;;36.33;31.67;;;;;8.93;100.00;100714.72;6265869;22;44732;-82
2024/02/27 03:56:25;;;;;;;;;40.67;37.67;;;;;8.98;100.00;100721.00;6268704;22;44942;-82
2024/02/27 03:58:51;;;;;;;;;38.67;35.00;;;;;9.01;100.00;100739.66;6240982;22;44963;-82
2024/02/27 04:01:18;;;;;;;;;33.33;29.67;;;;;9.21;100.00;100748.03;6268218;22;45078;-82
2024/02/27 04:03:44;;;;;;;;;15.67;10.33;;;;;9.02;100.00;100744.09;6268091;22;45399;-82
2024/02/27 04:06:11;;;;;;;;;33.67;31.00;;;;;9.05;100.00;100739.69;6266002;22;44853;-83
2024/02/27 04:08:37;;;;;;;;;27.67;27.67;;;;;8.96;100.00;100732.47;6240944;22;44979;-82
2024/02/27 04:11:04;;;;;;;;;34.00;29.33;;;;;9.09;100.00;100752.16;6268003;22;45072;-82
2024/02/27 04:13:30;;;;;;;;;33.00;30.00;;;;;9.12;100.00;100754.91;6155146;22;46495;-82
2024/02/27 04:21:06;;;;;;;;;35.00;31.33;;;;;8.99;100.00;100778.53;6147986;22;46813;-82
2024/02/27 04:23:32;;;;;;;;;28.67;26.33;;;;;9.01;100.00;100744.97;6267937;22;44681;-81
2024/02/27 04:25:59;;;;;;;;;33.67;33.00;;;;;9.14;100.00;100750.50;6241224;22;45034;-82
2024/02/27 04:33:41;;;;;;;;;40.00;34.67;;;;;9.14;100.00;100742.56;6207069;22;45675;-82
2024/02/27 04:45:23;;;;;;;;;32.67;31.33;;;;;9.31;100.00;100759.72;6181631;22;46487;-81
2024/02/27 04:47:49;;;;;;;;;40.67;33.00;;;;;9.26;100.00;100771.97;6231287;22;46872;-82
2024/02/27 04:50:15;;;;;;;;;30.67;29.33;;;;;9.05;100.00;100761.84;6238925;22;44900;-83
2024/02/27 04:52:40;;;;;;;;;36.00;36.00;;;;;9.12;100.00;100768.16;6267886;22;45834;-81
2024/02/27 04:55:06;;;;;;;;;30.33;26.33;;;;;8.97;100.00;100755.50;6241297;22;44848;-81
2024/02/27 04:57:32;;;;;;;;;39.33;35.33;;;;;9.10;100.00;100786.69;6242345;22;44863;-82
2024/02/27 04:59:57;;;;;;;;;37.33;33.00;;;;;9.19;100.00;100780.69;6242307;22;44886;-81
2024/02/27 05:12:44;;;;;;;;;35.00;31.33;;;;;9.11;100.00;100820.34;6208467;22;46238;-82
2024/02/27 05:20:21;;;;;;;;;35.67;34.33;;;;;8.92;100.00;100811.06;6211538;22;46704;-82
2024/02/27 05:22:47;;;;;;;;;40.33;34.67;;;;;8.96;100.00;100830.59;6241931;22;46062;-82
2024/02/27 05:25:12;;;;;;;;;36.33;31.00;;;;;8.84;100.00;100836.53;6242163;22;45386;-81
2024/02/27 05:27:37;;;;;;;;;27.33;27.33;;;;;8.92;100.00;100836.72;6193591;22;45719;-78
2024/02/27 05:30:06;;;;;;;;;27.67;24.00;;;;;8.95;100.00;100834.13;6212754;22;45454;-80
2024/02/27 05:32:32;;;;;;;;;37.00;34.33;;;;;8.95;100.00;100835.03;6211155;22;47480;-79
2024/02/27 05:34:57;;;;;;;;;29.00;26.00;;;;;8.93;100.00;100830.56;6236914;22;45534;-79
2024/02/27 05:37:23;;;;;;;;;33.67;30.67;;;;;8.93;100.00;100842.06;6214048;22;45534;-79
2024/02/27 05:39:48;;;;;;;;;40.33;36.33;;;;;8.86;100.00;100848.06;6210842;22;45264;-79
2024/02/27 05:42:13;;;;;;;;;39.67;31.00;;;;;8.95;100.00;100850.94;6212924;22;47935;-79
2024/02/27 05:44:39;;;;;;;;;33.00;29.33;;;;;8.97;100.00;100858.94;6212196;22;45316;-79
2024/02/27 05:47:05;;;;;;;;;34.00;30.00;;;;;8.95;100.00;100842.97;6210661;22;45396;-79
2024/02/27 05:49:31;;;;;;;;;35.33;29.67;;;;;9.02;100.00;100860.81;6213382;22;45465;-80
2024/02/27 05:51:56;;;;;;;;;36.00;29.00;;;;;9.01;100.00;100867.00;6210435;22;47053;-79
2024/02/27 05:54:22;;;;;;;;;36.67;35.00;;;;;9.04;100.00;100871.47;6213023;22;45213;-78
2024/02/27 05:56:48;;;;;;;;;36.33;32.33;;;;;8.91;100.00;100869.41;6213315;22;45414;-79
2024/02/27 05:59:14;;;;;;;;;30.67;27.33;;;;;8.89;100.00;100887.03;6210608;22;45380;-81
2024/02/27 06:01:40;;;;;;;;;33.67;32.33;;;;;9.00;100.00;100867.84;6213728;22;45418;-79
2024/02/27 06:04:06;;;;;;;;;27.00;25.33;;;;;8.88;100.00;100872.88;6211147;22;45405;-79
2024/02/27 06:06:31;;;;;;;;;39.00;35.67;;;;;8.85;100.00;100880.75;6213941;22;45276;-78
2024/02/27 06:08:56;;;;;;;;;37.00;31.67;;;;;8.94;100.00;100882.72;6213398;22;45789;-80
2024/02/27 06:11:22;;;;;;;;;39.00;32.33;;;;;8.89;100.00;100877.31;6215824;22;46271;-78
2024/02/27 06:13:48;;;;;;;;;33.00;31.33;;;;;8.85;100.00;100899.34;6215336;22;45371;-78
2024/02/27 06:16:20;;;;;;;;;30.67;30.33;;;;;8.99;100.00;100900.53;6215473;22;45300;-78
2024/02/27 06:18:47;;;;;;;;;30.00;28.67;;;;;8.81;100.00;100900.13;6214224;22;45421;-79
2024/02/27 06:23:58;;;;;;;;;36.00;31.00;;;;;8.80;100.00;100908.91;6212904;22;45343;-80
2024/02/27 06:26:23;;;;;;;;;27.67;24.67;;;;;8.77;100.00;100903.56;6236021;22;45467;-80
2024/02/27 06:28:48;;;;;;;;;35.00;33.00;;;;;8.71;100.00;100893.69;6216631;22;45526;-80
2024/02/27 06:31:14;;;;;;;;;39.67;34.67;;;;;8.70;100.00;100906.91;6243579;22;45275;-79
2024/02/27 06:33:39;;;;;;;;;25.00;24.33;;;;;8.68;100.00;100906.88;6216264;22;45356;-78
2024/02/27 06:36:05;;;;;;;;;33.33;31.33;;;;;8.59;100.00;100931.41;6215626;22;45381;-79
2024/02/27 06:38:30;;;;;;;;;38.00;30.67;;;;;8.41;100.00;100888.53;6244653;22;45316;-79
2024/02/27 06:40:56;;;;;;;;;34.33;29.00;;;;;8.54;100.00;100930.41;6242269;22;47905;-79
2024/02/27 06:43:21;;;;;;;;;28.67;26.00;;;;;8.60;100.00;100927.91;6231370;22;46224;-66
2024/02/27 06:45:46;;;;;;;;;32.67;28.67;;;;;9.10;100.00;100926.41;6241122;22;45292;-67
2024/02/27 06:48:15;;;;;;;;;35.00;31.33;;;;;9.52;100.00;100952.13;6242947;22;45385;-80
2024/02/27 06:50:41;;;;;;;;;38.00;34.33;;;;;9.28;100.00;100939.22;6220769;22;48149;-79
2024/02/27 06:53:08;;;;;;;;;40.67;36.00;;;;;9.17;100.00;100944.25;6250709;22;45339;-78
2024/02/27 06:55:35;;;;;;;;;28.00;26.67;;;;;9.17;100.00;100962.84;6217952;22;45164;-79
2024/02/27 06:58:00;;;;;;;;;36.67;32.33;;;;;9.03;100.00;100954.56;6244125;22;45380;-80
2024/02/27 07:00:25;;;;;;;;;40.67;38.00;;;;;8.96;100.00;100964.13;6242136;22;46252;-79
2024/02/27 07:02:51;;;;;;;;;38.00;36.00;;;;;8.97;100.00;100960.63;6245196;22;45271;-79
2024/02/27 07:05:17;;;;;;;;;35.00;34.67;;;;;8.88;100.00;100957.72;6246489;22;45352;-78
2024/02/27 07:07:42;;;;;;;;;34.67;33.67;;;;;8.91;100.00;100970.19;6243312;22;45648;-80
2024/02/27 07:10:09;;;;;;;;;32.67;32.00;;;;;8.85;100.00;100957.69;6243632;22;45607;-80
2024/02/27 07:12:34;;;;;;;;;41.00;36.67;;;;;8.78;100.00;100953.06;6242609;22;45497;-81
2024/02/27 07:15:01;;;;;;;;;41.00;38.00;;;;;8.95;100.00;100959.69;6242891;22;45328;-79
2024/02/27 07:17:29;;;;;;;;;37.33;33.00;;;;;8.91;100.00;100975.50;6214755;22;44826;-79
2024/02/27 07:19:55;;;;;;;;;40.00;34.67;;;;;8.85;100.00;100960.34;6244917;22;45302;-79
2024/02/27 07:22:23;;;;;;;;;38.00;33.33;;;;;8.77;100.00;100978.69;6216561;22;45280;-79
2024/02/27 07:24:49;;;;;;;;;43.00;38.00;;;;;8.88;100.00;100975.41;6216571;22;45347;-79
2024/02/27 07:27:15;;;;;;;;;45.67;37.67;;;;;8.80;100.00;100970.81;6210848;22;45384;-79
2024/02/27 07:29:40;;;;;;;;;46.00;39.67;;;;;8.83;100.00;100975.31;6212333;22;47102;-79
2024/02/27 07:32:06;;;;;;;;;39.00;36.00;;;;;8.83;100.00;100972.66;6214024;22;45129;-80
2024/02/27 07:34:32;;;;;;;;;29.00;25.00;;;;;8.89;100.00;100971.91;6215990;22;45410;-79
2024/02/27 07:36:57;;;;;;;;;36.33;32.00;;;;;8.85;100.00;100964.72;6223246;22;45378;-80
2024/02/27 07:39:23;;;;;;;;;41.67;37.67;;;;;8.69;100.00;100940.50;6213256;22;47051;-78
2024/02/27 07:41:48;;;;;;;;;40.33;37.00;;;;;8.91;100.00;100979.03;6215279;22;45340;-79
2024/02/27 07:44:14;;;;;;;;;38.67;30.00;;;;;9.02;100.00;100989.91;6185503;22;45349;-78
2024/02/27 07:46:39;;;;;;;;;39.33;34.00;;;;;8.89;100.00;100964.84;6211917;22;45301;-80
2024/02/27 07:49:05;;;;;;;;;45.00;39.00;;;;;8.95;100.00;100972.06;6214676;22;45329;-79
2024/02/27 08:39:00;;;;;;;;;40.33;39.00;;;;;8.98;100.00;101012.81;6264616;22;44882;-82
2024/02/27 08:49:15;;;;;;;;;38.67;34.33;;;;;9.19;100.00;101067.28;6195729;22;45651;-82
2024/02/27 08:51:46;;;;;;;;;30.00;24.00;;;;;9.04;100.00;101024.44;6168352;23;45255;-82
2024/02/27 08:54:12;;;;;;;;;36.00;34.33;;;;;9.11;100.00;101064.44;6198283;23;45260;-81
2024/02/27 08:56:40;;;;;;;;;38.00;34.33;;;;;9.04;100.00;101043.00;6166551;23;46944;-81
2024/02/27 08:59:06;;;;;;;;;37.00;33.33;;;;;8.89;100.00;101036.47;6165714;23;45356;-81
2024/02/27 09:01:36;;;;;;;;;35.00;34.33;;;;;9.07;100.00;101041.34;6190249;23;45384;-82
2024/02/27 09:04:01;;;;;;;;;26.00;25.67;;;;;9.15;100.00;101070.69;6187061;23;45433;-82
2024/02/27 09:06:27;;;;;;;;;39.33;35.67;;;;;9.12;100.00;101058.25;6158798;23;47076;-82
2024/02/27 09:09:06;;;;;;;;;30.33;25.33;;;;;9.34;100.00;101056.13;6189228;23;45346;-82
2024/02/27 09:11:36;;;;;;;;;35.67;30.67;;;;;9.45;100.00;101072.31;6161347;23;45749;-82
2024/02/27 09:14:12;;;;;;;;;37.00;33.00;;;;;9.07;100.00;101030.72;6159691;23;45306;-81
2024/02/27 09:16:47;;;;;;;;;34.33;31.67;;;;;9.24;100.00;101028.47;6171939;23;45224;-83
2024/02/27 09:20:00;;;;;;;;;36.33;31.67;;;;;9.38;100.00;101063.31;6155118;23;45294;-81
2024/02/27 09:22:31;;;;;;;;;41.67;35.00;;;;;9.17;100.00;101059.28;6132849;23;44846;-81
2024/02/27 09:25:06;;;;;;;;;40.33;34.33;;;;;9.16;100.00;101035.34;6133360;23;45767;-81
2024/02/27 09:27:35;;;;;;;;;31.00;25.00;;;;;9.37;100.00;101078.34;6111264;23;47161;-81
2024/02/27 09:30:04;;;;;;;;;37.67;28.33;;;;;9.25;100.00;101040.91;6162917;23;45129;-80
2024/02/27 09:32:59;;;;;;;;;36.00;30.67;;;;;9.49;100.00;101044.97;6136852;23;45345;-79
2024/02/27 09:44:13;;;;;;;;;33.33;31.00;;;;;9.95;100.00;101064.59;6195789;22;46132;-82
2024/02/27 09:57:55;;;;;;;;;;;;;;;;;;;;;
2024/02/27 10:00:21;;;;;;;;;36.00;36.00;;;;;10.52;100.00;101045.44;6077738;23;64752;-80
2024/02/27 10:02:50;;;;;;;;;35.00;31.00;;;;;10.62;100.00;101046.50;6130212;23;45024;-80
2024/02/27 10:05:37;;;;;;;;;28.00;23.67;;;;;10.85;100.00;101054.03;6133288;23;45319;-82
2024/02/27 10:31:04;;;;;;;;;27.67;25.00;;;;;11.00;100.00;101022.34;5994786;23;45991;-84
2024/02/27 12:16:02;;;;;;;;;28.33;26.33;;;;;12.61;100.00;101069.91;6199226;22;45556;-81
2024/02/27 12:18:59;;;;;;;;;;;;;;;;;;;;;
2024/02/27 12:21:41;;;;;;;;;26.67;26.67;;;;;12.72;100.00;101026.44;6162350;22;74725;-82
2024/02/27 13:01:39;;;;;;;;;32.33;28.00;;;;;12.94;100.00;101056.91;6098029;23;45383;-82
2024/02/27 13:05:07;;;;;;;;;34.33;28.33;;;;;13.01;100.00;101046.28;6098955;23;45437;-84
2024/02/27 13:13:28;;;;;;;;;;;;;;;;;;;;;
2024/02/27 13:20:00;;;;;;;;;;;;;;;;;;;;;
2024/02/27 13:23:21;;;;;;;;;25.33;25.33;;;;;13.07;100.00;101047.22;5843639;24;66102;-82
2024/02/27 13:26:51;;;;;;;;;28.00;25.67;;;;;12.94;100.00;101020.41;5887018;24;46754;-82
2024/02/27 13:39:29;;;;;;;;;27.67;27.67;;;;;12.98;100.00;101000.84;5793987;24;45536;-83
2024/02/27 13:42:12;;;;;;;;;;;;;;;;;;;;;
2024/02/27 13:44:47;;;;;;;;;22.67;20.67;;;;;13.09;100.00;100997.38;5788532;24;70143;-83
2024/02/27 13:47:23;;;;;;;;;30.67;26.67;;;;;13.10;100.00;101007.19;5746855;24;44847;-84
2024/02/27 13:50:21;;;;;;;;;;;;;;;;;;;;;
2024/02/27 13:52:58;;;;;;;;;23.67;23.00;;;;;13.07;100.00;101015.16;5753918;24;72073;-83
2024/02/27 13:56:30;;;;;;;;;27.67;23.67;;;;;13.56;100.00;101047.66;5708375;24;45478;-83
2024/02/27 13:59:09;;;;;;;;;24.33;22.00;;;;;13.40;100.00;101011.91;5819110;23;45149;-84
2024/02/27 14:02:29;;;;;;;;;;;;;;;;;;;;;
2024/02/27 14:05:02;;;;;;;;;30.33;27.67;;;;;13.61;100.00;101021.81;6070524;23;72940;-81
2024/02/27 14:07:40;;;;;;;;;30.00;26.33;;;;;13.94;100.00;101045.19;6047059;23;45476;-79
2024/02/27 14:10:55;;;;;;;;;22.33;22.33;;;;;14.06;100.00;101049.72;6071104;23;45224;-81
2024/02/27 14:13:33;;;;;;;;;17.00;17.00;;;;;13.78;100.00;101011.25;6123426;23;47789;-80
2024/02/27 14:16:31;;;;;;;;;22.00;21.33;;;;;13.93;100.00;101051.41;6192652;23;45320;-80
2024/02/27 14:19:32;;;;;;;;;22.00;19.67;;;;;13.91;99.78;101046.94;6167216;23;44854;-80
2024/02/27 14:22:15;;;;;;;;;19.33;19.33;;;;;13.92;100.00;101048.75;6192514;23;45294;-80
2024/02/27 14:24:50;;;;;;;;;22.67;20.67;;;;;13.78;100.00;101017.47;6191860;23;46716;-79
2024/02/27 14:34:31;;;;;;;;;;;;;;;;;;;;;
2024/02/27 14:37:47;;;;;;;;;22.67;20.67;;;;;13.94;100.00;101030.94;6194682;23;75093;-85
2024/02/27 14:40:48;;;;;;;;;18.67;18.67;;;;;13.98;100.00;101041.66;6175200;23;45884;-85
2024/02/27 14:44:04;;;;;;;;;;;;;;;;;;;;;
2024/02/27 14:53:50;;;;;;;;;11.00;11.00;;;;;14.03;100.00;101027.41;6192040;23;45398;-80
2024/02/27 14:57:16;;;;;;;;;;;;;;;;;;;;;
2024/02/27 15:00:21;;;;;;;;;;;;;;;;;;;;;
2024/02/27 15:13:27;;;;;;;;;;;;;;;;;;;;;
2024/02/27 15:16:13;;;;;;;;;17.67;17.67;;;;;13.73;100.00;101013.00;6004931;23;73893;-80
2024/02/27 15:19:20;;;;;;;;;10.00;10.00;;;;;13.90;100.00;101027.34;6016304;23;45248;-79
2024/02/27 15:29:04;;;;;;;;;;;;;;;;;;;;;
2024/02/27 15:32:41;;;;;;;;;10.33;9.33;;;;;13.82;100.00;101039.78;5819279;24;73692;-80
2024/02/27 15:35:56;;;;;;;;;11.00;10.00;;;;;13.85;99.97;101044.25;5716103;25;45023;-80
2024/02/27 15:46:31;;;;;;;;;;;;;;;;;;;;;
2024/02/27 16:00:44;;;;;;;;;;;;;;;;;;;;;
2024/02/27 16:03:40;;;;;;;;;10.00;6.67;;;;;13.31;100.00;101062.56;5913491;23;68100;-80
2024/02/27 16:06:55;;;;;;;;;;;;;;;;;;;;;
2024/02/27 16:10:30;;;;;;;;;;;;;;;;;;;;;
2024/02/27 16:16:15;;;;;;;;;7.00;7.00;;;;;12.93;100.00;101073.81;5972828;23;45335;-81
2024/02/27 16:19:07;;;;;;;;;4.00;4.00;;;;;12.88;99.47;101048.81;5881337;24;45406;-80
2024/02/27 16:25:55;;;;;;;;;;;;;;;;;;;;;
2024/02/27 16:29:16;;;;;;;;;;;;;;;;;;;;;
2024/02/27 16:35:31;;;;;;;;;3.75;3.75;;;;;13.11;100.00;101097.09;5876733;24;44862;-80
2024/02/27 16:38:41;;;;;;;;;4.00;4.00;;;;;13.07;100.00;101105.94;5877012;24;45749;-81
2024/02/27 16:44:37;;;;;;;;;;;;;;;;;;;;;
2024/02/27 16:47:18;;;;;;;;;8.00;7.00;;;;;12.85;100.00;101088.84;5820709;24;76093;-80
2024/02/27 16:50:17;;;;;;;;;4.00;4.00;;;;;13.01;100.00;101123.72;5821658;24;44962;-80
2024/02/27 17:00:05;;;;;;;;;5.00;4.00;;;;;12.84;100.00;101130.66;5842230;24;44858;-80
2024/02/27 17:02:55;;;;;;;;;;;;;;;;;;;;;
2024/02/27 17:05:26;;;;;;;;;4.00;4.00;;;;;12.48;100.00;101104.44;5876612;24;68339;-79
2024/02/27 17:08:18;;;;;;;;;7.00;5.00;;;;;12.70;100.00;101140.28;5854478;24;44816;-79
2024/02/27 17:10:58;;;;;;;;;7.00;5.00;;;;;12.52;100.00;101120.50;5848624;24;45266;-80
2024/02/27 17:13:32;;;;;;;;;5.00;5.00;;;;;12.47;100.00;101150.69;5955925;23;45309;-79
2024/02/27 17:19:19;;;;;;;;;4.33;4.33;;;;;12.34;100.00;101146.94;6002915;23;45709;-81
2024/02/27 17:25:21;;;;;;;;;3.33;3.33;;;;;12.27;100.00;101131.75;6044519;23;45487;-80
2024/02/27 17:28:21;;;;;;;;;6.00;3.00;;;;;12.30;100.00;101148.69;6044692;23;44926;-79
2024/02/27 17:31:20;;;;;;;;;;;;;;;;;;;;;
2024/02/27 17:33:46;;;;;;;;;7.00;7.00;;;;;12.02;100.00;101139.41;6039271;23;73686;-80
2024/02/27 17:36:19;;;;;;;;;7.33;7.00;;;;;11.95;100.00;101134.84;6019852;23;45243;-80
2024/02/27 17:38:45;;;;;;;;;8.00;6.00;;;;;12.11;100.00;101168.84;6049376;23;44909;-79
2024/02/27 17:41:11;;;;;;;;;8.33;6.33;;;;;12.07;100.00;101169.66;6191546;23;45436;-81
2024/02/27 17:43:39;;;;;;;;;5.67;5.67;;;;;12.03;100.00;101169.63;6193322;23;45425;-80
2024/02/27 17:46:06;;;;;;;;;8.00;8.00;;;;;11.89;100.00;101148.97;6189424;23;45491;-80
2024/02/27 17:48:44;;;;;;;;;8.00;7.00;;;;;12.05;100.00;101162.53;6193273;22;45239;-81
2024/02/27 17:51:24;;;;;;;;;8.00;8.00;;;;;11.92;100.00;101148.13;6168508;23;45267;-81
2024/02/27 17:53:53;;;;;;;;;10.00;8.00;;;;;11.97;100.00;101160.63;6196329;22;45253;-81
2024/02/27 17:56:19;;;;;;;;;8.00;8.00;;;;;11.68;100.00;101140.63;6192891;22;45428;-80
2024/02/27 17:58:44;;;;;;;;;8.00;3.67;;;;;11.92;100.00;101193.44;6193385;23;45346;-81
2024/02/27 18:01:10;;;;;;;;;8.33;7.33;;;;;11.75;100.00;101162.03;6216867;22;45369;-80
2024/02/27 18:03:36;;;;;;;;;13.33;11.67;;;;;11.71;100.00;101151.31;6195432;22;46924;-80
2024/02/27 18:06:01;;;;;;;;;15.33;13.00;;;;;11.79;100.00;101177.19;6193830;22;45333;-81
2024/02/27 18:08:30;;;;;;;;;12.00;11.33;;;;;11.77;100.00;101188.72;6222490;22;44805;-81
2024/02/27 18:11:01;;;;;;;;;9.00;9.00;;;;;11.97;100.00;101213.06;6194388;22;45403;-81
2024/02/27 18:13:26;;;;;;;;;8.33;8.00;;;;;11.79;100.00;101209.19;6193555;22;47082;-80
2024/02/27 18:15:54;;;;;;;;;7.67;7.00;;;;;11.84;100.00;101225.25;6191738;22;44808;-82
2024/02/27 18:18:21;;;;;;;;;7.00;5.67;;;;;11.52;100.00;101188.31;6219030;22;45154;-81
2024/02/27 18:20:46;;;;;;;;;10.00;9.33;;;;;11.65;100.00;101234.69;6218617;22;45467;-81